Time;durP1;ratioP1;P1;durP2;ratioP2;P2;SDS_P1;SDS_P2;PMS_P1;PMS_P2;Temp;Humidity;BMP_temperature;BMP_pressure;BME280_temperature;BME280_humidity;BME280_pressure;Samples;Min_cycle;Max_cycle;Signal;HPM_P1;HPM_P2
2021/03/08 00:01:03;;;;;;;;;;;-1.10;94.30;;;;;;5077915;28;20229;-67
2021/03/08 00:03:28;;;;;;;;;;;-1.10;94.30;;;;;;5083834;28;20268;-66
2021/03/08 00:05:54;;;;;;;;;;;-1.30;94.50;;;;;;5078483;28;20002;-65
2021/03/08 00:08:19;;;;;;;;;;;-1.30;94.70;;;;;;5084879;28;19923;-65
2021/03/08 00:10:45;;;;;;;;;;;-1.30;94.70;;;;;;5079528;28;19931;-67
2021/03/08 00:13:10;;;;;;;;;;;-1.30;94.60;;;;;;5080439;28;19974;-67
2021/03/08 00:15:36;;;;;;;;;;;-1.30;94.60;;;;;;5077224;28;20034;-67
2021/03/08 00:18:02;;;;;;;;;;;-1.30;94.50;;;;;;5081350;28;19912;-67
2021/03/08 00:20:27;;;;;;;;;;;-1.20;94.20;;;;;;5083690;28;19920;-67
2021/03/08 00:22:54;;;;;;;;;;;-1.20;93.50;;;;;;5081024;28;20281;-67
2021/03/08 00:25:24;;;;;;;;;;;-1.30;93.90;;;;;;5081219;28;19966;-67
2021/03/08 00:27:50;;;;;;;;;;;-1.30;94.10;;;;;;5082741;28;19923;-67
2021/03/08 00:30:16;;;;;;;;;;;-1.50;94.40;;;;;;5075199;28;19912;-67
2021/03/08 00:32:41;;;;;;;;;;;-1.50;95.00;;;;;;5075546;28;19970;-67
2021/03/08 00:35:07;;;;;;;;;;;-1.60;95.10;;;;;;5081264;28;20335;-67
2021/03/08 00:37:33;;;;;;;;;;;-1.70;95.30;;;;;;5079479;28;19917;-68
2021/03/08 00:39:59;;;;;;;;;;;-1.70;95.50;;;;;;5082542;28;19924;-67
2021/03/08 00:42:25;;;;;;;;;;;-1.90;95.50;;;;;;5083743;28;19920;-68
2021/03/08 00:44:51;;;;;;;;;;;-2.00;95.80;;;;;;5077925;28;20252;-67
2021/03/08 00:47:16;;;;;;;;;;;-2.10;96.30;;;;;;5080495;28;19927;-68
2021/03/08 00:49:42;;;;;;;;;;;-2.00;96.50;;;;;;5079409;28;19931;-67
2021/03/08 00:52:07;;;;;;;;;;;-2.00;96.60;;;;;;5080518;28;20289;-67
2021/03/08 00:54:33;;;;;;;;;;;-1.90;96.50;;;;;;5081100;28;19940;-67
2021/03/08 00:56:58;;;;;;;;;;;-1.80;96.30;;;;;;5080707;28;19912;-65
2021/03/08 00:59:24;;;;;;;;;;;-1.90;96.10;;;;;;5079861;28;19920;-65
2021/03/08 01:01:49;;;;;;;;;;;-2.00;96.20;;;;;;5086869;28;19911;-66
2021/03/08 01:04:15;;;;;;;;;;;-2.10;96.30;;;;;;5082690;28;19974;-65
2021/03/08 01:06:40;;;;;;;;;;;-2.10;96.60;;;;;;5086224;28;19912;-66
2021/03/08 01:09:06;;;;;;;;;;;-2.20;96.60;;;;;;5078094;28;19921;-66
2021/03/08 01:11:32;;;;;;;;;;;-2.40;96.60;;;;;;5082950;28;21354;-68
2021/03/08 01:13:58;;;;;;;;;;;-2.50;96.80;;;;;;5083063;28;19920;-68
2021/03/08 01:16:23;;;;;;;;;;;-2.40;97.30;;;;;;5082761;28;20429;-68
2021/03/08 01:18:49;;;;;;;;;;;-2.30;97.30;;;;;;5078709;28;20411;-67
2021/03/08 01:21:14;;;;;;;;;;;-2.20;97.20;;;;;;5079827;28;19919;-66
2021/03/08 01:23:39;;;;;;;;;;;-2.00;97.10;;;;;;5083192;28;19924;-66
2021/03/08 01:26:05;;;;;;;;;;;-1.90;96.60;;;;;;5079852;28;19977;-67
2021/03/08 01:28:31;;;;;;;;;;;-1.90;96.30;;;;;;5079299;28;19949;-69
2021/03/08 01:30:56;;;;;;;;;;;-2.00;96.20;;;;;;5078121;28;19916;-67
2021/03/08 01:33:22;;;;;;;;;;;-2.10;96.30;;;;;;5080742;28;21053;-68
2021/03/08 01:35:48;;;;;;;;;;;-2.20;96.40;;;;;;5082741;28;20308;-68
2021/03/08 01:38:13;;;;;;;;;;;-2.30;96.60;;;;;;5076759;28;19931;-67
2021/03/08 01:40:39;;;;;;;;;;;-2.30;96.90;;;;;;5084506;28;19912;-68
2021/03/08 01:43:05;;;;;;;;;;;-2.30;97.00;;;;;;5084263;28;19966;-67
2021/03/08 01:45:31;;;;;;;;;;;-2.30;97.10;;;;;;5083074;28;19921;-68
2021/03/08 01:47:57;;;;;;;;;;;-2.20;97.00;;;;;;5080418;28;19935;-67
2021/03/08 01:50:36;;;;;;;;;;;-2.20;97.00;;;;;;5081326;28;20286;-68
2021/03/08 01:53:02;;;;;;;;;;;-2.20;96.90;;;;;;5076521;28;19912;-67
2021/03/08 01:55:28;;;;;;;;;;;-2.10;96.80;;;;;;5078760;28;20144;-67
2021/03/08 01:57:54;;;;;;;;;;;-2.10;96.60;;;;;;5079349;28;19996;-67
2021/03/08 02:00:20;;;;;;;;;;;-2.10;96.50;;;;;;5083243;28;19916;-68
2021/03/08 02:02:46;;;;;;;;;;;-2.10;96.50;;;;;;5078708;28;19931;-69
2021/03/08 02:05:16;;;;;;;;;;;-2.20;96.30;;;;;;5080546;28;19913;-67
2021/03/08 02:07:41;;;;;;;;;;;-2.30;96.10;;;;;;5084117;28;20327;-67
2021/03/08 02:10:11;;;;;;;;;;;-2.40;96.20;;;;;;5083180;28;20037;-67
2021/03/08 02:12:46;;;;;;;;;;;-2.50;96.30;;;;;;5087453;28;19998;-68
2021/03/08 02:15:14;;;;;;;;;;;-2.60;96.60;;;;;;5083688;28;19966;-66
2021/03/08 02:17:55;;;;;;;;;;;-2.70;96.70;;;;;;5080954;28;19912;-67
2021/03/08 02:20:23;;;;;;;;;;;-2.60;96.80;;;;;;5084098;28;19920;-68
2021/03/08 02:23:02;;;;;;;;;;;-2.50;96.80;;;;;;5082866;28;19920;-68
2021/03/08 02:25:31;;;;;;;;;;;-2.50;96.60;;;;;;5084238;28;19912;-68
2021/03/08 02:28:15;;;;;;;;;;;-2.50;96.60;;;;;;5085084;28;19927;-67
2021/03/08 02:30:42;;;;;;;;;;;-2.50;96.60;;;;;;5080310;28;19913;-67
2021/03/08 02:33:09;;;;;;;;;;;-2.60;96.50;;;;;;5083150;28;19924;-67
2021/03/08 02:35:42;;;;;;;;;;;-2.70;96.20;;;;;;5084776;28;19920;-67
2021/03/08 02:38:10;;;;;;;;;;;-2.80;96.40;;;;;;5080501;28;19930;-66
2021/03/08 02:40:39;;;;;;;;;;;-2.90;96.60;;;;;;5084089;28;20201;-67
2021/03/08 02:43:08;;;;;;;;;;;-2.90;96.80;;;;;;5093549;28;19912;-67
2021/03/08 02:45:33;;;;;;;;;;;-2.90;97.00;;;;;;5085995;28;19924;-67
2021/03/08 02:48:01;;;;;;;;;;;-2.90;97.10;;;;;;5087166;28;20308;-67
2021/03/08 02:50:29;;;;;;;;;;;-2.80;97.10;;;;;;5087880;28;19986;-69
2021/03/08 02:52:57;;;;;;;;;;;-2.70;96.90;;;;;;5079910;28;19917;-67
2021/03/08 02:55:25;;;;;;;;;;;-2.70;96.80;;;;;;5079916;28;19930;-67
2021/03/08 02:57:52;;;;;;;;;;;-2.70;96.70;;;;;;5084279;28;19913;-67
2021/03/08 03:00:18;;;;;;;;;;;-2.80;96.80;;;;;;5080810;28;19912;-67
2021/03/08 03:02:45;;;;;;;;;;;-2.80;97.20;;;;;;5079964;28;19932;-67
2021/03/08 03:05:12;;;;;;;;;;;-2.90;97.20;;;;;;5088549;28;19938;-67
2021/03/08 03:07:40;;;;;;;;;;;-3.00;97.30;;;;;;5086527;28;20331;-67
2021/03/08 03:10:06;;;;;;;;;;;-3.00;97.50;;;;;;5081304;28;20285;-68
2021/03/08 03:12:34;;;;;;;;;;;-3.00;97.60;;;;;;5082015;28;19916;-67
2021/03/08 03:14:59;;;;;;;;;;;-3.10;97.70;;;;;;5084379;28;19916;-67
2021/03/08 03:17:26;;;;;;;;;;;-3.20;97.80;;;;;;5081470;28;19913;-67
2021/03/08 03:19:52;;;;;;;;;;;-3.40;97.90;;;;;;5082342;28;20313;-67
2021/03/08 03:22:23;;;;;;;;;;;-3.40;97.80;;;;;;5086234;28;20304;-67
2021/03/08 03:24:50;;;;;;;;;;;-3.30;98.00;;;;;;5085126;28;19965;-67
2021/03/08 03:27:16;;;;;;;;;;;-3.40;98.00;;;;;;5079453;28;20269;-68
2021/03/08 03:29:42;;;;;;;;;;;-3.40;98.00;;;;;;5082878;28;19935;-65
2021/03/08 03:32:08;;;;;;;;;;;-3.50;98.00;;;;;;5084489;28;20436;-67
2021/03/08 03:34:34;;;;;;;;;;;-3.70;98.00;;;;;;5084209;28;19994;-67
2021/03/08 03:37:00;;;;;;;;;;;-3.70;97.90;;;;;;5087417;28;20265;-66
2021/03/08 03:39:26;;;;;;;;;;;-3.60;98.00;;;;;;5087089;28;19993;-65
2021/03/08 03:41:51;;;;;;;;;;;-3.60;98.00;;;;;;5082315;28;19924;-67
2021/03/08 03:44:17;;;;;;;;;;;-3.70;98.00;;;;;;5083911;28;19916;-67
2021/03/08 03:46:46;;;;;;;;;;;-3.60;98.00;;;;;;5078936;28;20283;-67
2021/03/08 03:49:15;;;;;;;;;;;-3.50;98.00;;;;;;5082099;28;19996;-67
2021/03/08 03:51:41;;;;;;;;;;;-3.30;98.00;;;;;;5084642;28;20216;-67
2021/03/08 03:54:07;;;;;;;;;;;-3.40;98.00;;;;;;5085666;28;19916;-68
2021/03/08 03:56:35;;;;;;;;;;;-3.40;98.00;;;;;;5083380;28;19928;-67
2021/03/08 03:59:03;;;;;;;;;;;-3.40;98.00;;;;;;5080749;28;19939;-67
2021/03/08 04:01:34;;;;;;;;;;;-3.40;98.00;;;;;;5080570;28;19943;-67
2021/03/08 04:04:01;;;;;;;;;;;-3.40;98.00;;;;;;5079212;28;19984;-67
2021/03/08 04:06:31;;;;;;;;;;;-3.50;98.00;;;;;;5086001;28;19969;-67
2021/03/08 04:08:58;;;;;;;;;;;-3.70;98.00;;;;;;5084895;28;19959;-69
2021/03/08 04:11:26;;;;;;;;;;;-3.70;97.90;;;;;;5079396;28;19919;-66
2021/03/08 04:13:53;;;;;;;;;;;-3.80;98.00;;;;;;5078399;28;19920;-65
2021/03/08 04:16:18;;;;;;;;;;;-4.00;98.00;;;;;;5080750;28;19928;-66
2021/03/08 04:18:47;;;;;;;;;;;-4.20;98.00;;;;;;5078930;28;19916;-65
2021/03/08 04:21:13;;;;;;;;;;;-4.20;97.60;;;;;;5079153;28;19995;-65
2021/03/08 04:23:39;;;;;;;;;;;-4.10;97.90;;;;;;5087266;28;19978;-65
2021/03/08 04:26:06;;;;;;;;;;;-4.00;97.90;;;;;;5084299;28;19916;-68
2021/03/08 04:28:34;;;;;;;;;;;-3.90;97.90;;;;;;5089198;28;19942;-67
2021/03/08 04:31:00;;;;;;;;;;;-3.90;98.00;;;;;;5079712;28;19947;-67
2021/03/08 04:33:26;;;;;;;;;;;-3.80;98.00;;;;;;5083477;28;19959;-67
2021/03/08 04:35:52;;;;;;;;;;;-3.80;98.00;;;;;;5082608;28;19965;-66
2021/03/08 04:38:18;;;;;;;;;;;-3.90;98.00;;;;;;5085494;28;19912;-68
2021/03/08 04:40:43;;;;;;;;;;;-3.90;98.00;;;;;;5087741;28;20015;-67
2021/03/08 04:43:09;;;;;;;;;;;-4.10;98.00;;;;;;5079539;28;19921;-67
2021/03/08 04:45:37;;;;;;;;;;;-4.30;98.00;;;;;;5082516;28;19924;-66
2021/03/08 04:48:03;;;;;;;;;;;-4.20;98.00;;;;;;5079600;28;20239;-68
2021/03/08 04:50:29;;;;;;;;;;;-4.30;97.90;;;;;;5078529;28;19995;-68
2021/03/08 04:52:55;;;;;;;;;;;-4.10;97.80;;;;;;5081463;28;19999;-67
2021/03/08 04:55:23;;;;;;;;;;;-4.10;98.00;;;;;;5081488;28;19978;-67
2021/03/08 04:57:48;;;;;;;;;;;-4.10;98.00;;;;;;5082212;28;20064;-66
2021/03/08 05:00:14;;;;;;;;;;;-4.10;98.00;;;;;;5083549;28;20360;-65
2021/03/08 05:02:41;;;;;;;;;;;-4.10;98.00;;;;;;5077373;28;19916;-66
2021/03/08 05:05:08;;;;;;;;;;;-4.20;98.00;;;;;;5083342;28;20003;-67
2021/03/08 05:07:35;;;;;;;;;;;-4.30;98.00;;;;;;5077445;28;20019;-67
2021/03/08 05:10:01;;;;;;;;;;;-4.30;97.90;;;;;;5080233;28;20332;-67
2021/03/08 05:12:27;;;;;;;;;;;-4.20;98.00;;;;;;5079875;28;20316;-67
2021/03/08 05:14:54;;;;;;;;;;;-4.20;98.00;;;;;;5083573;28;19920;-67
2021/03/08 05:17:21;;;;;;;;;;;-4.20;98.00;;;;;;5077414;28;19990;-67
2021/03/08 05:19:47;;;;;;;;;;;-4.20;98.00;;;;;;5078023;28;19916;-67
2021/03/08 05:22:13;;;;;;;;;;;-4.20;98.00;;;;;;5080621;28;20331;-67
2021/03/08 05:24:40;;;;;;;;;;;-4.20;98.00;;;;;;5081278;28;19920;-67
2021/03/08 05:27:08;;;;;;;;;;;-4.40;98.00;;;;;;5078746;28;19924;-67
2021/03/08 05:29:40;;;;;;;;;;;-4.30;98.00;;;;;;5084060;28;21171;-67
2021/03/08 05:32:07;;;;;;;;;;;-4.30;98.00;;;;;;5080150;28;20278;-66
2021/03/08 05:34:33;;;;;;;;;;;-4.20;98.00;;;;;;5080977;28;20356;-67
2021/03/08 05:36:59;;;;;;;;;;;-4.40;98.00;;;;;;5077058;28;20002;-67
2021/03/08 05:39:25;;;;;;;;;;;-4.50;98.00;;;;;;5080584;28;20039;-67
2021/03/08 05:41:55;;;;;;;;;;;-4.60;98.00;;;;;;5084392;28;19913;-68
2021/03/08 05:44:22;;;;;;;;;;;-4.70;98.00;;;;;;5079483;28;19916;-68
2021/03/08 05:46:53;;;;;;;;;;;-4.80;97.90;;;;;;5076709;28;20003;-68
2021/03/08 05:49:21;;;;;;;;;;;-4.70;98.00;;;;;;5079764;28;20267;-66
2021/03/08 05:52:05;;;;;;;;;;;-4.60;98.00;;;;;;5084008;28;19943;-66
2021/03/08 05:54:43;;;;;;;;;;;-4.60;98.00;;;;;;5080043;28;19921;-66
2021/03/08 05:57:20;;;;;;;;;;;-4.70;98.00;;;;;;5079303;28;19927;-68
2021/03/08 05:59:51;;;;;;;;;;;-4.70;98.00;;;;;;5080304;28;19916;-68
2021/03/08 06:02:17;;;;;;;;;;;-4.70;98.00;;;;;;5073426;28;20305;-67
2021/03/08 06:05:15;;;;;;;;;;;-4.60;98.00;;;;;;5079416;28;19977;-68
2021/03/08 06:07:43;;;;;;;;;;;-4.70;98.00;;;;;;5064843;28;20003;-67
2021/03/08 06:10:15;;;;;;;;;;;-4.70;98.00;;;;;;5079203;28;19925;-66
2021/03/08 06:12:41;;;;;;;;;;;-4.80;98.00;;;;;;5082093;28;19993;-67
2021/03/08 06:15:08;;;;;;;;;;;-4.90;98.00;;;;;;5082118;28;19927;-65
2021/03/08 06:17:33;;;;;;;;;;;-4.90;98.00;;;;;;5077472;28;20216;-66
2021/03/08 06:19:59;;;;;;;;;;;-4.80;98.00;;;;;;5081793;28;19912;-68
2021/03/08 06:22:25;;;;;;;;;;;-4.70;98.00;;;;;;5084148;28;20009;-68
2021/03/08 06:24:51;;;;;;;;;;;-4.60;98.00;;;;;;5083600;28;20007;-68
2021/03/08 06:27:16;;;;;;;;;;;-4.50;98.00;;;;;;5075232;28;19917;-68
2021/03/08 06:29:43;;;;;;;;;;;-4.40;98.00;;;;;;5079290;28;19973;-67
2021/03/08 06:32:09;;;;;;;;;;;-4.50;98.00;;;;;;5090716;28;20315;-68
2021/03/08 06:34:35;;;;;;;;;;;-4.50;98.00;;;;;;5082199;28;19971;-66
2021/03/08 06:37:10;;;;;;;;;;;-4.40;98.00;;;;;;5088834;28;19920;-68
2021/03/08 06:39:45;;;;;;;;;;;-4.30;98.00;;;;;;5082860;28;19931;-68
2021/03/08 06:42:12;;;;;;;;;;;-4.20;98.00;;;;;;5089578;28;19912;-68
2021/03/08 06:44:38;;;;;;;;;;;-4.00;98.00;;;;;;5085740;28;19912;-68
2021/03/08 06:47:04;;;;;;;;;;;-4.00;98.00;;;;;;5074045;28;19920;-68
2021/03/08 06:49:30;;;;;;;;;;;-3.90;98.00;;;;;;5075406;28;19908;-68
2021/03/08 06:51:59;;;;;;;;;;;-3.80;98.00;;;;;;5075157;28;20229;-67
2021/03/08 06:54:24;;;;;;;;;;;-3.70;98.00;;;;;;5078140;28;20550;-67
2021/03/08 06:56:50;;;;;;;;;;;-3.60;98.00;;;;;;5077779;28;19909;-68
2021/03/08 06:59:15;;;;;;;;;;;-3.60;98.00;;;;;;5078680;28;19912;-67
2021/03/08 07:01:41;;;;;;;;;;;-3.50;98.00;;;;;;5077611;28;19920;-67
2021/03/08 07:04:11;;;;;;;;;;;-3.40;98.00;;;;;;5097236;28;20201;-67
2021/03/08 07:06:36;;;;;;;;;;;-3.20;98.00;;;;;;5096269;28;20339;-67
2021/03/08 07:09:06;;;;;;;;;;;-3.10;98.00;;;;;;5078839;28;19916;-66
2021/03/08 07:11:31;;;;;;;;;;;-2.90;98.00;;;;;;5085593;28;20000;-66
2021/03/08 07:13:57;;;;;;;;;;;-2.80;98.00;;;;;;5098886;28;20018;-66
2021/03/08 07:16:33;;;;;;;;;;;-2.80;98.00;;;;;;5095684;28;19927;-65
2021/03/08 07:18:59;;;;;;;;;;;-2.70;98.00;;;;;;5078284;28;19912;-65
2021/03/08 07:21:24;;;;;;;;;;;-2.60;98.00;;;;;;5096831;28;20403;-68
2021/03/08 07:23:50;;;;;;;;;;;-2.50;98.00;;;;;;5086963;28;20366;-68
2021/03/08 07:26:20;;;;;;;;;;;-2.50;98.00;;;;;;5078166;28;19912;-67
2021/03/08 07:29:05;;;;;;;;;;;-2.40;98.00;;;;;;5091501;28;19916;-67
2021/03/08 07:31:41;;;;;;;;;;;-2.20;98.00;;;;;;5091697;28;19917;-68
2021/03/08 07:34:09;;;;;;;;;;;-2.00;98.00;;;;;;5077927;28;20304;-68
2021/03/08 07:36:45;;;;;;;;;;;-1.90;97.90;;;;;;5082985;28;19915;-67
2021/03/08 07:39:11;;;;;;;;;;;-1.70;97.30;;;;;;5076956;28;20410;-67
2021/03/08 07:41:49;;;;;;;;;;;-1.60;97.30;;;;;;5085589;28;19919;-67
2021/03/08 07:44:14;;;;;;;;;;;-1.50;96.80;;;;;;5092980;28;20220;-67
2021/03/08 07:46:40;;;;;;;;;;;-1.30;96.70;;;;;;5081010;28;19912;-67
2021/03/08 07:49:06;;;;;;;;;;;-1.10;96.80;;;;;;5098142;28;19919;-67
2021/03/08 07:51:32;;;;;;;;;;;-0.90;96.10;;;;;;5090035;28;19909;-66
2021/03/08 07:53:58;;;;;;;;;;;-0.80;95.60;;;;;;5077608;28;19912;-67
2021/03/08 07:56:24;;;;;;;;;;;-0.70;95.20;;;;;;5083172;28;19916;-67
2021/03/08 07:58:51;;;;;;;;;;;-0.60;94.80;;;;;;5097692;28;19995;-67
2021/03/08 08:01:17;;;;;;;;;;;-0.60;94.10;;;;;;5076791;28;19909;-66
2021/03/08 08:03:42;;;;;;;;;;;-0.30;94.40;;;;;;5077083;28;20220;-67
2021/03/08 08:06:09;;;;;;;;;;;-0.10;93.60;;;;;;5093968;28;19912;-67
2021/03/08 08:08:36;;;;;;;;;;;0.10;93.10;;;;;;5087938;28;19916;-67
2021/03/08 08:11:04;;;;;;;;;;;0.30;92.40;;;;;;5093339;28;20327;-67
2021/03/08 08:13:39;;;;;;;;;;;0.40;92.40;;;;;;5118044;28;19934;-67
2021/03/08 08:16:08;;;;;;;;;;;0.50;91.60;;;;;;5106007;28;19927;-67
2021/03/08 08:18:41;;;;;;;;;;;0.60;91.20;;;;;;5097439;28;19908;-67
2021/03/08 08:21:16;;;;;;;;;;;0.70;90.50;;;;;;5097003;28;19923;-67
2021/03/08 08:23:42;;;;;;;;;;;0.90;90.50;;;;;;5097323;28;19908;-67
2021/03/08 08:26:09;;;;;;;;;;;1.50;89.00;;;;;;5096327;28;19916;-67
2021/03/08 08:28:36;;;;;;;;;;;2.40;87.20;;;;;;5096299;28;20204;-67
2021/03/08 08:31:02;;;;;;;;;;;4.00;83.10;;;;;;5095306;28;19919;-67
2021/03/08 08:33:32;;;;;;;;;;;5.00;79.00;;;;;;5096192;28;19908;-67
2021/03/08 08:36:06;;;;;;;;;;;6.30;75.40;;;;;;5094687;28;20363;-67
2021/03/08 08:38:32;;;;;;;;;;;7.30;71.60;;;;;;5094295;28;19939;-67
2021/03/08 08:41:17;;;;;;;;;;;7.60;69.50;;;;;;5095969;28;20293;-67
2021/03/08 08:43:42;;;;;;;;;;;7.60;68.80;;;;;;5092503;28;19912;-67
2021/03/08 08:46:25;;;;;;;;;;;7.30;69.40;;;;;;5085676;28;19920;-68
2021/03/08 08:49:07;;;;;;;;;;;7.10;69.50;;;;;;5076819;28;19939;-67
2021/03/08 08:51:46;;;;;;;;;;;7.70;68.50;;;;;;5076613;28;19935;-68
2021/03/08 08:54:31;;;;;;;;;;;8.20;67.50;;;;;;5087446;28;20360;-66
2021/03/08 08:57:00;;;;;;;;;;;8.10;66.60;;;;;;5095394;28;19908;-66
2021/03/08 08:59:26;;;;;;;;;;;7.80;67.00;;;;;;5081167;28;19913;-67
2021/03/08 09:02:12;;;;;;;;;;;7.90;66.90;;;;;;5082826;28;19919;-66
2021/03/08 09:04:38;;;;;;;;;;;8.00;66.60;;;;;;5083034;28;19913;-67
2021/03/08 09:07:22;;;;;;;;;;;8.20;66.50;;;;;;5076363;28;19916;-66
2021/03/08 09:09:47;;;;;;;;;;;8.30;66.30;;;;;;5087488;28;19912;-65
2021/03/08 09:12:25;;;;;;;;;;;7.70;67.70;;;;;;5095263;28;19934;-66
2021/03/08 09:15:01;;;;;;;;;;;7.80;68.30;;;;;;5078185;28;19931;-66
2021/03/08 09:17:30;;;;;;;;;;;8.00;68.40;;;;;;5075111;28;19912;-64
2021/03/08 09:19:56;;;;;;;;;;;8.30;67.10;;;;;;5076088;28;19912;-66
2021/03/08 09:22:28;;;;;;;;;;;8.10;66.60;;;;;;5094859;28;19965;-66
2021/03/08 09:24:57;;;;;;;;;;;7.90;67.90;;;;;;5096353;28;19947;-66
2021/03/08 09:27:23;;;;;;;;;;;8.10;67.50;;;;;;5076110;28;20007;-67
2021/03/08 09:29:49;;;;;;;;;;;8.10;67.80;;;;;;5076049;28;19959;-66
2021/03/08 09:32:14;;;;;;;;;;;8.30;67.60;;;;;;5091558;28;20007;-66
2021/03/08 09:34:40;;;;;;;;;;;8.40;66.70;;;;;;5095878;28;20015;-66
2021/03/08 09:37:06;;;;;;;;;;;8.80;66.00;;;;;;5076034;28;19917;-66
2021/03/08 09:39:46;;;;;;;;;;;8.60;66.00;;;;;;5075845;28;19908;-66
2021/03/08 09:42:11;;;;;;;;;;;8.90;66.00;;;;;;5075752;28;19916;-66
2021/03/08 09:44:44;;;;;;;;;;;9.30;64.80;;;;;;5085031;28;19912;-65
2021/03/08 09:47:12;;;;;;;;;;;9.40;64.70;;;;;;5094630;28;19916;-66
2021/03/08 09:49:48;;;;;;;;;;;9.60;63.80;;;;;;5095099;28;19915;-66
2021/03/08 09:52:28;;;;;;;;;;;9.30;64.00;;;;;;5096057;28;19916;-66
2021/03/08 09:54:54;;;;;;;;;;;9.30;62.50;;;;;;5093277;28;20354;-66
2021/03/08 09:57:48;;;;;;;;;;;9.00;64.20;;;;;;5089588;28;19916;-65
2021/03/08 10:00:22;;;;;;;;;;;8.90;64.10;;;;;;5079678;28;19909;-66
2021/03/08 10:02:56;;;;;;;;;;;9.40;63.20;;;;;;5094984;28;19912;-65
2021/03/08 10:05:21;;;;;;;;;;;9.40;62.00;;;;;;5094995;28;19915;-63
2021/03/08 10:07:56;;;;;;;;;;;9.20;62.70;;;;;;5086918;28;19916;-64
2021/03/08 10:10:23;;;;;;;;;;;9.60;62.30;;;;;;5075612;28;20194;-65
2021/03/08 10:12:58;;;;;;;;;;;9.90;61.30;;;;;;5083473;28;19995;-65
2021/03/08 10:15:23;;;;;;;;;;;9.70;61.10;;;;;;5102221;28;19976;-66
2021/03/08 10:17:53;;;;;;;;;;;9.50;60.60;;;;;;5114436;28;20215;-67
2021/03/08 10:20:19;;;;;;;;;;;9.50;60.90;;;;;;5115888;28;19908;-67
2021/03/08 10:22:44;;;;;;;;;;;9.20;59.70;;;;;;5109195;28;19919;-66
2021/03/08 10:25:22;;;;;;;;;;;8.60;61.70;;;;;;5108833;28;19991;-67
2021/03/08 10:27:54;;;;;;;;;;;9.10;63.10;;;;;;5117875;28;19912;-67
2021/03/08 10:30:20;;;;;;;;;;;9.60;61.00;;;;;;5098327;28;20344;-67
2021/03/08 10:32:46;;;;;;;;;;;9.40;60.60;;;;;;5115932;28;19916;-67
2021/03/08 10:35:15;;;;;;;;;;;9.60;60.70;;;;;;5119291;28;19919;-67
2021/03/08 10:37:41;;;;;;;;;;;10.10;61.20;;;;;;5101039;28;19947;-67
2021/03/08 10:40:07;;;;;;;;;;;10.40;60.40;;;;;;5119712;28;19911;-66
2021/03/08 10:42:34;;;;;;;;;;;10.50;58.60;;;;;;5104383;28;19912;-67
2021/03/08 10:45:00;;;;;;;;;;;10.10;58.80;;;;;;5098918;28;19908;-67
2021/03/08 10:47:26;;;;;;;;;;;10.00;59.40;;;;;;5111080;28;20381;-67
2021/03/08 10:49:52;;;;;;;;;;;10.00;60.30;;;;;;5119580;28;20185;-67
2021/03/08 10:52:18;;;;;;;;;;;10.00;60.00;;;;;;5107324;28;20010;-68
2021/03/08 10:54:44;;;;;;;;;;;10.20;59.80;;;;;;5099085;28;20303;-67
2021/03/08 10:57:10;;;;;;;;;;;10.50;58.90;;;;;;5106435;28;20296;-68
2021/03/08 10:59:43;;;;;;;;;;;10.60;58.00;;;;;;5110926;28;20334;-68
2021/03/08 11:02:10;;;;;;;;;;;9.90;57.90;;;;;;5102812;28;19916;-68
2021/03/08 11:04:36;;;;;;;;;;;9.80;59.90;;;;;;5100316;28;20326;-68
2021/03/08 11:07:02;;;;;;;;;;;10.00;60.10;;;;;;5118162;28;19911;-68
2021/03/08 11:09:28;;;;;;;;;;;10.00;59.80;;;;;;5117805;27;19912;-67
2021/03/08 11:11:54;;;;;;;;;;;10.00;59.40;;;;;;5100858;28;19913;-67
2021/03/08 11:14:22;;;;;;;;;;;9.90;59.40;;;;;;5099470;28;19952;-68
2021/03/08 11:16:51;;;;;;;;;;;9.70;59.60;;;;;;5111896;28;20204;-67
2021/03/08 11:19:18;;;;;;;;;;;10.10;58.60;;;;;;5116724;28;20013;-67
2021/03/08 11:21:44;;;;;;;;;;;10.30;57.90;;;;;;5100922;28;19913;-67
2021/03/08 11:24:20;;;;;;;;;;;10.30;58.50;;;;;;5103047;28;19919;-67
2021/03/08 11:27:04;;;;;;;;;;;10.40;57.90;;;;;;5112425;28;20015;-67
2021/03/08 11:29:29;;;;;;;;;;;10.30;58.10;;;;;;5118032;28;19916;-67
2021/03/08 11:31:55;;;;;;;;;;;10.40;57.60;;;;;;5104694;28;20014;-68
2021/03/08 11:34:39;;;;;;;;;;;10.10;56.40;;;;;;5102120;28;19915;-67
2021/03/08 11:37:14;;;;;;;;;;;10.10;58.30;;;;;;5118532;28;19908;-68
2021/03/08 11:39:41;;;;;;;;;;;9.90;58.00;;;;;;5116277;28;19912;-67
2021/03/08 11:42:06;;;;;;;;;;;10.20;58.20;;;;;;5100202;28;20006;-67
2021/03/08 11:44:32;;;;;;;;;;;10.40;57.30;;;;;;5117531;28;20015;-67
2021/03/08 11:46:58;;;;;;;;;;;10.60;57.80;;;;;;5117223;28;19907;-66
2021/03/08 11:49:24;;;;;;;;;;;10.20;57.70;;;;;;5117747;28;19912;-67
2021/03/08 11:51:49;;;;;;;;;;;10.40;57.10;;;;;;5106114;28;19912;-68
2021/03/08 11:54:15;;;;;;;;;;;10.60;56.30;;;;;;5118366;28;19914;-67
2021/03/08 11:56:40;;;;;;;;;;;10.00;56.10;;;;;;5106671;28;19912;-68
2021/03/08 11:59:06;;;;;;;;;;;10.30;57.10;;;;;;5103747;28;19912;-67
2021/03/08 12:01:33;;;;;;;;;;;10.10;56.20;;;;;;5116840;28;20272;-67
2021/03/08 12:03:59;;;;;;;;;;;10.00;56.60;;;;;;5117826;28;20344;-67
2021/03/08 12:06:24;;;;;;;;;;;10.10;57.30;;;;;;5117669;28;19915;-67
2021/03/08 12:08:50;;;;;;;;;;;9.70;56.90;;;;;;5117003;28;19920;-67
2021/03/08 12:11:15;;;;;;;;;;;9.80;57.40;;;;;;5117920;28;19916;-68
2021/03/08 12:13:41;;;;;;;;;;;9.90;57.50;;;;;;5117754;28;20358;-67
2021/03/08 12:16:06;;;;;;;;;;;10.00;58.00;;;;;;5078503;28;19927;-67
2021/03/08 12:18:32;;;;;;;;;;;10.00;56.60;;;;;;5115474;28;19912;-67
2021/03/08 12:20:57;;;;;;;;;;;10.20;56.40;;;;;;5109238;28;19939;-67
2021/03/08 12:23:23;;;;;;;;;;;9.70;56.20;;;;;;5115059;27;19969;-66
2021/03/08 12:25:48;;;;;;;;;;;9.60;57.60;;;;;;5107813;28;19911;-68
2021/03/08 12:28:14;;;;;;;;;;;9.60;56.70;;;;;;5116634;27;20327;-67
2021/03/08 12:30:40;;;;;;;;;;;9.90;57.10;;;;;;5118704;27;19908;-67
2021/03/08 12:33:05;;;;;;;;;;;9.70;56.10;;;;;;5116530;28;19927;-67
2021/03/08 12:35:31;;;;;;;;;;;9.70;56.60;;;;;;5117358;28;20000;-67
2021/03/08 12:37:57;;;;;;;;;;;9.70;56.20;;;;;;5115276;28;19999;-66
2021/03/08 12:40:22;;;;;;;;;;;9.80;56.60;;;;;;5098191;28;20395;-67
2021/03/08 12:42:48;;;;;;;;;;;9.60;57.10;;;;;;5110320;28;19918;-67
2021/03/08 12:45:14;;;;;;;;;;;9.30;57.70;;;;;;5112972;28;19918;-65
2021/03/08 12:47:39;;;;;;;;;;;9.20;58.60;;;;;;5116049;28;19951;-66
2021/03/08 12:50:05;;;;;;;;;;;9.20;58.20;;;;;;5112483;28;20186;-67
2021/03/08 12:52:30;;;;;;;;;;;9.60;57.90;;;;;;5114760;28;19918;-66
2021/03/08 12:54:56;;;;;;;;;;;9.50;58.10;;;;;;5115680;28;20037;-65
2021/03/08 12:57:22;;;;;;;;;;;9.10;57.60;;;;;;5114278;28;19911;-65
2021/03/08 12:59:47;;;;;;;;;;;8.90;58.70;;;;;;5114005;28;19958;-65
2021/03/08 13:02:13;;;;;;;;;;;8.80;60.20;;;;;;5112652;27;19957;-65
2021/03/08 13:04:38;;;;;;;;;;;9.10;59.50;;;;;;5116091;28;20296;-65
2021/03/08 13:07:04;;;;;;;;;;;9.00;59.80;;;;;;5104186;28;19919;-64
2021/03/08 13:09:29;;;;;;;;;;;9.00;59.60;;;;;;5112093;28;19911;-65
2021/03/08 13:11:55;;;;;;;;;;;9.10;59.70;;;;;;5115030;28;19938;-66
2021/03/08 13:14:20;;;;;;;;;;;9.10;59.50;;;;;;5113881;28;19931;-66
2021/03/08 13:16:46;;;;;;;;;;;9.30;59.70;;;;;;5111259;28;20088;-65
2021/03/08 13:19:11;;;;;;;;;;;9.30;58.70;;;;;;5103065;28;19912;-66
2021/03/08 13:21:38;;;;;;;;;;;9.20;58.90;;;;;;5091013;28;20458;-66
2021/03/08 13:24:04;;;;;;;;;;;9.00;59.50;;;;;;5087951;28;20225;-66
2021/03/08 13:26:30;;;;;;;;;;;8.70;59.40;;;;;;5081739;28;19918;-66
2021/03/08 13:28:56;;;;;;;;;;;8.30;60.40;;;;;;5087045;28;20286;-67
2021/03/08 13:31:21;;;;;;;;;;;8.30;60.80;;;;;;5076755;28;20210;-67
2021/03/08 13:33:47;;;;;;;;;;;8.40;60.80;;;;;;5096111;28;19934;-67
2021/03/08 13:36:13;;;;;;;;;;;8.40;60.80;;;;;;5092396;28;19912;-66
2021/03/08 13:38:38;;;;;;;;;;;8.70;61.60;;;;;;5078731;28;19924;-67
2021/03/08 13:41:04;;;;;;;;;;;8.60;60.80;;;;;;5082174;28;19920;-66
2021/03/08 13:43:29;;;;;;;;;;;8.40;61.70;;;;;;5076163;28;19915;-66
2021/03/08 13:45:55;;;;;;;;;;;8.50;61.60;;;;;;5088019;28;19916;-67
2021/03/08 13:48:20;;;;;;;;;;;8.40;61.60;;;;;;5106559;28;19938;-66
2021/03/08 13:50:46;;;;;;;;;;;8.40;61.70;;;;;;5102265;28;19958;-67
2021/03/08 13:53:11;;;;;;;;;;;8.50;61.30;;;;;;5092441;28;19958;-67
2021/03/08 13:55:37;;;;;;;;;;;8.50;61.30;;;;;;5090301;28;19962;-67
2021/03/08 13:58:02;;;;;;;;;;;8.50;61.30;;;;;;5070047;28;19919;-67
2021/03/08 14:00:28;;;;;;;;;;;8.60;61.30;;;;;;5075597;28;20403;-66
2021/03/08 14:02:53;;;;;;;;;;;8.70;60.90;;;;;;5080081;28;19959;-66
2021/03/08 14:05:19;;;;;;;;;;;8.70;61.40;;;;;;5084733;28;20305;-66
2021/03/08 14:07:44;;;;;;;;;;;8.60;60.80;;;;;;5082973;28;19970;-66
2021/03/08 14:10:10;;;;;;;;;;;8.80;61.10;;;;;;5091934;28;19916;-65
2021/03/08 14:12:36;;;;;;;;;;;8.90;60.60;;;;;;5099167;28;20360;-65
2021/03/08 14:15:02;;;;;;;;;;;9.00;60.60;;;;;;5097027;28;19912;-66
2021/03/08 14:17:28;;;;;;;;;;;8.90;61.40;;;;;;5116187;28;19912;-67
2021/03/08 14:19:53;;;;;;;;;;;9.10;59.70;;;;;;5110637;27;20280;-67
2021/03/08 14:22:20;;;;;;;;;;;9.20;60.00;;;;;;5122557;27;20283;-67
2021/03/08 14:24:47;;;;;;;;;;;9.10;60.50;;;;;;5107789;27;19915;-66